Terminal Aerodrome Forecast
Issued by NWS Louisville, KY

Home | Current Version | Previous Version | Text Only | Print | Product List | Glossary On
Versions: 1 2 3 4 5 6 7 8 9 10 11 12 13 14
000
FTUS43 KLMK 022320
TAFSDF
TAF
KSDF 022320Z 0300/0406 24005KT P6SM FEW250
     FM031000 20004KT P6SM SCT050
     FM031400 25010KT P6SM SCT040=

USA.gov is the U.S. government's official web portal to all federal, state and local government web resources and services.